createdAt,value
2023-04-15T04:01:26.552Z,7.29
2023-04-15T04:04:11.326Z,7.19
2023-04-15T04:06:56.200Z,7.31
2023-04-15T04:09:41.271Z,7.41
2023-04-15T04:12:26.177Z,7.26
2023-04-15T04:15:10.821Z,7.25
2023-04-15T04:17:55.955Z,7.25
2023-04-15T04:20:40.646Z,7.28
2023-04-15T04:23:25.618Z,7.30
2023-04-15T04:26:10.585Z,7.33
2023-04-15T04:28:55.583Z,7.34
2023-04-15T04:31:40.529Z,7.35
2023-04-15T04:34:25.322Z,7.44
2023-04-15T04:37:10.224Z,7.37
2023-04-15T04:39:55.056Z,7.27
2023-04-15T04:42:40.303Z,7.29
2023-04-15T04:45:25.048Z,7.26
2023-04-15T04:48:09.968Z,7.36
2023-04-15T04:50:54.760Z,7.30
2023-04-15T04:53:39.670Z,7.34
2023-04-15T04:56:24.450Z,7.27
2023-04-15T04:59:09.326Z,7.30
2023-04-15T05:01:54.357Z,7.38
2023-04-15T05:04:39.171Z,7.33
2023-04-15T05:07:24.171Z,7.39
2023-04-15T05:10:09.013Z,7.03
2023-04-15T05:12:53.991Z,6.92
2023-04-15T05:15:38.840Z,7.05
2023-04-15T05:18:23.639Z,7.18
2023-04-15T05:21:08.454Z,7.16
2023-04-15T05:23:53.290Z,7.10
2023-04-15T05:26:38.140Z,7.12
2023-04-15T05:29:23.129Z,6.94
2023-04-15T05:32:08.146Z,6.30
2023-04-15T05:34:52.953Z,6.51
2023-04-15T05:37:37.822Z,6.74
2023-04-15T05:40:22.660Z,6.66
2023-04-15T05:43:07.654Z,6.25
2023-04-15T05:45:52.542Z,6.28
2023-04-15T05:48:37.474Z,5.81
2023-04-15T05:51:22.433Z,6.16
2023-04-15T05:54:07.304Z,6.25
2023-04-15T05:56:52.140Z,6.73
2023-04-15T05:59:36.944Z,6.98
2023-04-15T06:02:21.937Z,7.06
2023-04-15T06:05:06.809Z,7.22
2023-04-15T06:07:51.669Z,7.30
2023-04-15T06:10:36.478Z,7.45
2023-04-15T06:13:21.383Z,7.47
2023-04-15T06:16:06.245Z,7.70
2023-04-15T06:18:51.082Z,7.95
2023-04-15T06:21:36.032Z,8.11
2023-04-15T06:24:20.840Z,8.09
2023-04-15T06:27:05.892Z,8.16
2023-04-15T06:29:50.625Z,8.17
2023-04-15T06:32:35.753Z,8.26
2023-04-15T06:35:20.580Z,8.30
2023-04-15T06:38:05.575Z,8.43
2023-04-15T06:40:50.626Z,8.22
2023-04-15T06:43:35.501Z,8.19
2023-04-15T06:46:20.585Z,7.71
2023-04-15T06:49:05.264Z,7.77
2023-04-15T06:51:50.166Z,7.99
2023-04-15T06:54:34.938Z,8.27
2023-04-15T06:57:20.123Z,8.57
2023-04-15T07:00:05.017Z,8.27
2023-04-15T07:02:49.958Z,7.59
2023-04-15T07:05:34.691Z,7.63
2023-04-15T07:08:19.448Z,7.67
2023-04-15T07:11:04.408Z,8.41
2023-04-15T07:13:49.277Z,8.59
2023-04-15T07:16:34.215Z,8.14
2023-04-15T07:19:19.015Z,8.09
2023-04-15T07:22:03.799Z,6.73
2023-04-15T07:24:48.706Z,7.09
2023-04-15T07:27:33.640Z,7.12
2023-04-15T07:30:18.491Z,6.83
2023-04-15T07:33:03.241Z,7.18
2023-04-15T07:35:48.050Z,6.94
2023-04-15T07:38:32.928Z,6.28
2023-04-15T07:41:18.018Z,6.03
2023-04-15T07:44:02.964Z,6.62
2023-04-15T07:46:47.866Z,6.96
2023-04-15T07:49:32.729Z,7.44
2023-04-15T07:52:17.593Z,7.04
2023-04-15T07:55:02.345Z,7.36
2023-04-15T07:57:47.431Z,6.74
2023-04-15T08:00:32.469Z,6.95
2023-04-15T08:03:17.391Z,6.93
2023-04-15T08:06:02.352Z,6.28
2023-04-15T08:08:47.159Z,6.22
2023-04-15T08:11:32.240Z,7.01
2023-04-15T08:14:17.091Z,6.46
2023-04-15T08:17:01.933Z,6.25
2023-04-15T08:19:46.857Z,5.88
2023-04-15T08:22:31.787Z,5.89
2023-04-15T08:25:16.664Z,5.61
2023-04-15T08:28:01.467Z,5.14
2023-04-15T08:30:46.513Z,5.27
2023-04-15T08:33:31.359Z,5.19
2023-04-15T08:36:16.218Z,4.44
2023-04-15T08:39:01.328Z,3.97
2023-04-15T08:41:46.490Z,4.28
2023-04-15T08:44:31.329Z,4.46
2023-04-15T08:47:16.280Z,4.89
2023-04-15T08:50:01.319Z,4.85
2023-04-15T08:52:46.097Z,4.75
2023-04-15T08:55:30.990Z,4.61
2023-04-15T08:58:15.911Z,4.60
2023-04-15T09:01:00.694Z,4.46
2023-04-15T09:03:45.537Z,4.36
2023-04-15T09:06:30.391Z,3.94
2023-04-15T09:09:15.320Z,4.10
2023-04-15T09:12:00.335Z,4.41
2023-04-15T09:14:45.134Z,4.18
2023-04-15T09:17:29.988Z,4.00
2023-04-15T09:20:14.909Z,4.29
2023-04-15T09:22:59.694Z,4.40
2023-04-15T09:25:44.553Z,4.91
2023-04-15T09:28:29.402Z,6.23
2023-04-15T09:31:14.362Z,6.49
2023-04-15T09:33:59.274Z,7.14
2023-04-15T09:36:44.051Z,7.54
2023-04-15T09:39:28.832Z,8.00
2023-04-15T09:42:13.660Z,8.13
2023-04-15T09:44:58.621Z,8.41
2023-04-15T09:47:43.620Z,8.58
2023-04-15T09:50:28.476Z,8.73
2023-04-15T09:53:13.362Z,8.83
2023-04-15T09:55:58.540Z,9.00
2023-04-15T09:58:43.328Z,8.96
2023-04-15T10:01:28.326Z,8.98
2023-04-15T10:04:13.378Z,8.89
2023-04-15T10:06:58.179Z,8.68
2023-04-15T10:09:43.083Z,8.63
2023-04-15T10:12:27.950Z,8.84
2023-04-15T10:15:12.845Z,7.71
2023-04-15T10:17:57.705Z,7.58
2023-04-15T10:20:42.578Z,8.11
2023-04-15T10:23:27.497Z,8.97
2023-04-15T10:26:12.441Z,8.70
2023-04-15T10:28:58.412Z,8.93
2023-04-15T10:31:44.099Z,8.87
2023-04-15T10:34:29.061Z,8.39
2023-04-15T10:37:13.942Z,8.83
2023-04-15T10:39:58.889Z,9.43
2023-04-15T10:42:43.687Z,9.85
2023-04-15T10:45:28.634Z,10.30
2023-04-15T10:48:13.537Z,10.16
2023-04-15T10:50:58.408Z,10.17
2023-04-15T10:53:43.416Z,10.61
2023-04-15T10:56:28.249Z,9.99
2023-04-15T10:59:13.189Z,10.21
2023-04-15T11:01:58.078Z,9.29
2023-04-15T11:04:43.203Z,9.86
2023-04-15T11:07:27.868Z,9.75
2023-04-15T11:10:12.842Z,9.94
2023-04-15T11:12:57.620Z,10.16
2023-04-15T11:15:42.388Z,10.39
2023-04-15T11:18:27.240Z,10.67
2023-04-15T11:21:12.128Z,10.92
2023-04-15T11:23:57.101Z,10.92
2023-04-15T11:26:41.990Z,10.79
2023-04-15T11:29:26.975Z,11.12
2023-04-15T11:32:11.986Z,10.11
2023-04-15T11:34:56.844Z,11.00
2023-04-15T11:37:41.703Z,9.32
2023-04-15T11:40:26.441Z,8.84
2023-04-15T11:43:11.397Z,8.77
2023-04-15T11:45:56.313Z,9.78
2023-04-15T11:48:41.186Z,10.61
2023-04-15T11:51:26.035Z,11.52
2023-04-15T11:54:10.978Z,11.94
2023-04-15T11:56:55.791Z,12.27
2023-04-15T11:59:45.318Z,11.50
2023-04-15T12:02:30.966Z,9.33
2023-04-15T12:05:15.859Z,9.94
2023-04-15T12:08:00.607Z,8.45
2023-04-15T12:10:45.493Z,8.57
2023-04-15T12:13:30.249Z,8.89
2023-04-15T12:16:15.286Z,8.43
2023-04-15T12:19:00.065Z,8.22
2023-04-15T12:21:44.923Z,8.58
2023-04-15T12:24:29.784Z,8.08
2023-04-15T12:27:14.644Z,8.05
2023-04-15T12:29:59.429Z,8.30
2023-04-15T12:32:44.375Z,7.20
2023-04-15T12:35:29.148Z,7.57
2023-04-15T12:38:14.042Z,7.15
2023-04-15T12:40:58.989Z,6.67
2023-04-15T12:43:43.880Z,7.29
2023-04-15T12:46:28.787Z,7.04
2023-04-15T12:49:13.693Z,6.70
2023-04-15T12:51:58.670Z,7.01
2023-04-15T12:54:43.450Z,7.70
2023-04-15T12:57:28.497Z,7.41
2023-04-15T13:00:13.262Z,8.12
2023-04-15T13:02:58.160Z,7.37
2023-04-15T13:05:43.168Z,7.82
2023-04-15T13:08:29.215Z,7.28
2023-04-15T13:11:13.884Z,7.89
2023-04-15T13:13:58.594Z,7.80
2023-04-15T13:16:43.464Z,7.91
2023-04-15T13:19:28.232Z,7.20
2023-04-15T13:22:13.170Z,7.26
2023-04-15T13:24:57.929Z,7.57
2023-04-15T13:27:42.707Z,8.34
2023-04-15T13:30:27.788Z,9.14
2023-04-15T13:33:12.628Z,9.02
2023-04-15T13:35:57.558Z,9.75
2023-04-15T13:38:42.572Z,8.46
2023-04-15T13:41:27.370Z,9.63
2023-04-15T13:44:12.325Z,9.44
2023-04-15T13:46:57.352Z,9.49
2023-04-15T13:49:42.274Z,8.84
2023-04-15T13:52:26.987Z,9.42
2023-04-15T13:55:19.715Z,8.49
2023-04-15T13:58:05.401Z,9.02
2023-04-15T14:00:50.191Z,8.41
2023-04-15T14:03:35.033Z,8.70
2023-04-15T14:06:19.751Z,8.76
2023-04-15T14:09:04.841Z,8.51
2023-04-15T14:11:50.000Z,8.82
2023-04-15T14:14:34.753Z,8.39
2023-04-15T14:17:19.606Z,7.45
2023-04-15T14:20:04.565Z,7.50
2023-04-15T14:22:49.484Z,7.78
2023-04-15T14:25:34.432Z,8.65
2023-04-15T14:28:19.315Z,8.47
2023-04-15T14:31:04.203Z,8.70
2023-04-15T14:33:49.011Z,9.10
2023-04-15T14:36:33.820Z,9.06
2023-04-15T14:39:18.683Z,8.95
2023-04-15T14:42:03.499Z,8.82
2023-04-15T14:44:48.301Z,9.34
2023-04-15T14:47:33.386Z,10.12
2023-04-15T14:50:18.372Z,9.89
2023-04-15T14:53:03.225Z,9.82
2023-04-15T14:55:47.973Z,9.22
2023-04-15T14:58:32.792Z,8.92
2023-04-15T15:01:17.677Z,9.09
2023-04-15T15:04:02.419Z,9.39
2023-04-15T15:06:49.044Z,9.57
2023-04-15T15:09:35.028Z,9.40
2023-04-15T15:12:20.268Z,9.96
2023-04-15T15:15:12.227Z,9.84
2023-04-15T15:18:00.629Z,9.58
2023-04-15T15:20:45.297Z,9.81
2023-04-15T15:23:30.434Z,9.72
2023-04-15T15:26:15.172Z,8.73
2023-04-15T15:29:00.057Z,9.48
2023-04-15T15:31:44.921Z,8.64
2023-04-15T15:34:29.746Z,8.42
2023-04-15T15:37:14.443Z,9.11
2023-04-15T15:39:59.490Z,9.03
2023-04-15T15:42:44.271Z,8.93
2023-04-15T15:45:29.062Z,8.96
2023-04-15T15:48:13.898Z,8.11
2023-04-15T15:50:58.746Z,8.88
2023-04-15T15:53:43.813Z,9.36
2023-04-15T15:56:28.585Z,8.49
2023-04-15T15:59:13.621Z,8.63
2023-04-15T16:01:58.624Z,8.68
2023-04-15T16:04:43.333Z,8.94
2023-04-15T16:07:28.291Z,8.75
2023-04-15T16:10:13.288Z,8.89
2023-04-15T16:12:58.234Z,9.18
2023-04-15T16:15:43.091Z,9.93
2023-04-15T16:18:27.997Z,10.34
2023-04-15T16:21:12.752Z,10.73
2023-04-15T16:23:58.216Z,11.01
2023-04-15T16:26:42.935Z,11.04
2023-04-15T16:29:27.819Z,11.17
2023-04-15T16:32:12.728Z,11.24
2023-04-15T16:34:57.507Z,11.25
2023-04-15T16:37:42.457Z,11.27
2023-04-15T16:40:27.256Z,11.19
2023-04-15T16:43:12.114Z,11.18
2023-04-15T16:45:56.979Z,11.13
2023-04-15T16:48:41.973Z,11.10
2023-04-15T16:51:26.986Z,11.02
2023-04-15T16:54:11.911Z,11.00
2023-04-15T16:56:56.870Z,10.75
2023-04-15T16:59:41.865Z,10.76
2023-04-15T17:02:26.867Z,10.82
2023-04-15T17:05:11.570Z,10.93
2023-04-15T17:07:56.568Z,10.66
2023-04-15T17:10:41.406Z,9.43
2023-04-15T17:13:26.383Z,9.05
2023-04-15T17:16:11.210Z,8.38
2023-04-15T17:18:56.232Z,8.06
2023-04-15T17:21:41.163Z,8.09
2023-04-15T17:24:26.122Z,7.81
2023-04-15T17:27:11.060Z,8.48
2023-04-15T17:29:56.036Z,8.95
2023-04-15T17:32:41.166Z,9.05
2023-04-15T17:35:25.844Z,9.10
2023-04-15T17:38:10.609Z,9.22
2023-04-15T17:40:55.372Z,9.14
2023-04-15T17:43:40.254Z,8.52
2023-04-15T17:46:25.197Z,7.30
2023-04-15T17:49:10.008Z,7.80
2023-04-15T17:51:54.977Z,8.46
2023-04-15T17:54:39.966Z,8.71
2023-04-15T17:57:24.994Z,8.84
2023-04-15T18:00:09.791Z,8.92
2023-04-15T18:02:55.065Z,8.93
2023-04-15T18:05:42.060Z,8.89
2023-04-15T18:08:27.544Z,9.03
2023-04-15T18:11:12.491Z,9.02
2023-04-15T18:13:57.332Z,9.09
2023-04-15T18:16:42.354Z,9.18
2023-04-15T18:19:27.093Z,9.08
2023-04-15T18:22:11.965Z,8.94
2023-04-15T18:24:56.751Z,8.90
2023-04-15T18:27:41.689Z,8.88
2023-04-15T18:30:26.511Z,8.93
2023-04-15T18:33:11.419Z,8.95
2023-04-15T18:35:56.403Z,8.84
2023-04-15T18:38:41.259Z,8.80
2023-04-15T18:41:26.305Z,8.69
2023-04-15T18:44:11.208Z,8.53
2023-04-15T18:46:56.071Z,8.57
2023-04-15T18:49:40.985Z,8.50
2023-04-15T18:52:25.901Z,8.47
2023-04-15T18:55:10.738Z,8.47
2023-04-15T18:57:56.683Z,8.48
2023-04-15T19:00:41.821Z,8.44
2023-04-15T19:03:26.589Z,8.37
2023-04-15T19:06:11.330Z,8.25
2023-04-15T19:08:56.170Z,8.14
2023-04-15T19:11:41.020Z,8.13
2023-04-15T19:14:25.820Z,7.97
2023-04-15T19:17:10.571Z,7.87
2023-04-15T19:19:55.546Z,7.91
2023-04-15T19:22:40.382Z,7.76
2023-04-15T19:25:25.326Z,7.39
2023-04-15T19:28:10.083Z,6.75
2023-04-15T19:30:55.026Z,6.63
2023-04-15T19:33:39.786Z,6.75
2023-04-15T19:36:24.733Z,6.88
2023-04-15T19:39:09.571Z,6.97
2023-04-15T19:41:55.262Z,6.40
2023-04-15T19:44:40.406Z,6.45
2023-04-15T19:47:25.311Z,6.53
2023-04-15T19:50:10.237Z,6.67
2023-04-15T19:52:55.093Z,6.56
2023-04-15T19:55:40.071Z,6.66
2023-04-15T19:58:24.936Z,6.12
2023-04-15T20:01:09.869Z,5.34
2023-04-15T20:03:54.902Z,5.90
2023-04-15T20:06:40.154Z,6.17
2023-04-15T20:09:25.144Z,6.35
2023-04-15T20:12:50.151Z,6.39
2023-04-15T20:15:14.485Z,6.36
2023-04-15T20:17:59.427Z,5.97
2023-04-15T20:20:44.388Z,6.21
2023-04-15T20:23:29.336Z,6.24
2023-04-15T20:26:14.075Z,6.18
2023-04-15T20:28:59.100Z,6.09
2023-04-15T20:31:44.054Z,6.15
2023-04-15T20:34:28.817Z,6.36
2023-04-15T20:37:13.591Z,6.39
2023-04-15T20:39:58.551Z,5.00
2023-04-15T20:42:43.525Z,5.12
2023-04-15T20:45:28.355Z,5.77
2023-04-15T20:48:13.458Z,6.06
2023-04-15T20:50:58.309Z,6.26
2023-04-15T20:53:43.339Z,6.40
2023-04-15T20:56:28.175Z,6.16
2023-04-15T20:59:13.137Z,5.13
